Caceres, Spain

5:26 AM CEST on October 25, 2014 (GMT +0200)
R66 DAVIS | Change Station
CLOSE
Current Station
Personal Weather Station
Location: Caceres, EXTREMADURA
Elevation: 1470 ft
Nearby Weather Stations

Elev 1470 ft 39.48 °N, 6.39 °W | Updated 7 seconds ago

Clear
Clear
64.8 °F
Feels Like 64.8 °F
N
4.0
Wind Variable Wind from ENE
Gusts 4.0 mph

Today
High -- | Low -- °F
--% Chance of Precip.
Yesterday
High -- | Low -- °F
Precip. -- in
8:45 AM 7:32 PM
New Moon, 2% visible
Pressure 30.01 in
Visibility -9999.0 miles
Clouds
Dew Point 52 °F
Humidity 64%
Rainfall 0.00 in
Snow Depth Not available.
UV Not available.
Pollen Not available.
Air Quality Not available.
Flu Activity Not available.
METAR LEBZ 250300Z AUTO 00000KT CAVOK 14/13 Q1016

More Conditions Fewer Conditions

Pressure 30.01 in
Visibility -9999.0 miles
Clouds
Dew Point 52 °F
Humidity 64%
Rainfall 0.00 in
Snow Depth Not available.
UV Not available.
Pollen Not available.
Air Quality Not available.
Flu Activity Not available.
METAR LEBZ 250300Z AUTO 00000KT CAVOK 14/13 Q1016

More Conditions Fewer Conditions

10-Day Weather Forecast

Almanac

Astronomy

Oct. 25, 2014 Rise Set
Actual Time 8:45 AM CEST 7:32 PM CEST
Civil Twilight 8:18 AM CEST 8:00 PM CEST
Nautical Twilight 7:46 AM CEST 8:31 PM CEST
Astronomical Twilight 7:15 AM CEST 9:02 PM CEST
Moon 10:10 AM CEST 8:45 PM CEST
Length of Visible Light 11h 42m
Length of Day
10h 47m
Tomorrow will be 2m 22s shorter.
New Moon, 2% of the Moon is Illuminated
Oct 24
New Moon
Oct 30
First Quarter
Nov 6
Full
Nov 14
Last Quarter
Nov 22
New

Yesterday's Extremes

Country Highs Country Lows

Community

WunderPhotos

Upload Photos

1,764,769 photos uploaded!

Nearby

Snow Depth

Not available.

Earthquake Activity

City Distance Mag. Time & Date
No recent earthquake activity has been reported nearby.
Minimum magnitude displayed is 2.5.

Coastal Water Temperatures

Place Temperature
No Stations Reporting

Nearby Weather Stations